sensor_id;sensor_type;location;lat;lon;timestamp;P1;durP1;ratioP1;P2;durP2;ratioP2
78183;SDS011;67442;44.570;18.610;2024-01-30T00:00:34;217.75;;;70.00;;
78183;SDS011;67442;44.570;18.610;2024-01-30T00:03:04;204.35;;;69.90;;
78183;SDS011;67442;44.570;18.610;2024-01-30T00:05:35;271.58;;;84.55;;
78183;SDS011;67442;44.570;18.610;2024-01-30T00:08:03;429.33;;;129.85;;
78183;SDS011;67442;44.570;18.610;2024-01-30T00:10:37;337.88;;;110.25;;
78183;SDS011;67442;44.570;18.610;2024-01-30T00:13:08;302.55;;;97.38;;
78183;SDS011;67442;44.570;18.610;2024-01-30T00:15:40;241.52;;;79.70;;
78183;SDS011;67442;44.570;18.610;2024-01-30T00:18:07;294.88;;;94.03;;
78183;SDS011;67442;44.570;18.610;2024-01-30T00:20:34;214.57;;;71.85;;
78183;SDS011;67442;44.570;18.610;2024-01-30T00:23:02;295.20;;;93.22;;
78183;SDS011;67442;44.570;18.610;2024-01-30T00:25:30;249.70;;;77.65;;
78183;SDS011;67442;44.570;18.610;2024-01-30T00:27:59;238.50;;;74.05;;
78183;SDS011;67442;44.570;18.610;2024-01-30T00:30:30;228.75;;;70.90;;
78183;SDS011;67442;44.570;18.610;2024-01-30T00:33:01;172.20;;;58.88;;
78183;SDS011;67442;44.570;18.610;2024-01-30T00:35:29;213.15;;;67.53;;
78183;SDS011;67442;44.570;18.610;2024-01-30T00:37:57;315.30;;;101.07;;
78183;SDS011;67442;44.570;18.610;2024-01-30T00:40:24;268.73;;;88.07;;
78183;SDS011;67442;44.570;18.610;2024-01-30T00:42:55;282.05;;;88.32;;
78183;SDS011;67442;44.570;18.610;2024-01-30T00:45:27;213.85;;;71.03;;
78183;SDS011;67442;44.570;18.610;2024-01-30T00:47:58;201.82;;;65.28;;
78183;SDS011;67442;44.570;18.610;2024-01-30T00:50:26;181.38;;;61.80;;
78183;SDS011;67442;44.570;18.610;2024-01-30T00:52:53;183.85;;;60.90;;
78183;SDS011;67442;44.570;18.610;2024-01-30T00:55:25;171.20;;;54.15;;
78183;SDS011;67442;44.570;18.610;2024-01-30T00:57:52;203.57;;;64.25;;
78183;SDS011;67442;44.570;18.610;2024-01-30T01:00:20;217.32;;;67.45;;
78183;SDS011;67442;44.570;18.610;2024-01-30T01:02:48;219.32;;;72.68;;
78183;SDS011;67442;44.570;18.610;2024-01-30T01:05:20;257.40;;;82.47;;
78183;SDS011;67442;44.570;18.610;2024-01-30T01:07:51;183.27;;;60.35;;
78183;SDS011;67442;44.570;18.610;2024-01-30T01:10:22;174.65;;;58.00;;
78183;SDS011;67442;44.570;18.610;2024-01-30T01:12:53;168.80;;;54.83;;
78183;SDS011;67442;44.570;18.610;2024-01-30T01:15:21;162.00;;;52.63;;
78183;SDS011;67442;44.570;18.610;2024-01-30T01:17:49;165.90;;;55.20;;
78183;SDS011;67442;44.570;18.610;2024-01-30T01:20:16;160.38;;;57.53;;
78183;SDS011;67442;44.570;18.610;2024-01-30T01:22:44;175.82;;;59.78;;
78183;SDS011;67442;44.570;18.610;2024-01-30T01:25:11;221.90;;;74.43;;
78183;SDS011;67442;44.570;18.610;2024-01-30T01:27:39;160.52;;;49.92;;
78183;SDS011;67442;44.570;18.610;2024-01-30T01:30:11;143.30;;;46.55;;
78183;SDS011;67442;44.570;18.610;2024-01-30T01:32:44;151.88;;;49.13;;
78183;SDS011;67442;44.570;18.610;2024-01-30T01:35:16;163.43;;;52.40;;
78183;SDS011;67442;44.570;18.610;2024-01-30T01:37:44;178.68;;;55.88;;
78183;SDS011;67442;44.570;18.610;2024-01-30T01:40:11;189.60;;;63.78;;
78183;SDS011;67442;44.570;18.610;2024-01-30T01:42:38;228.77;;;72.10;;
78183;SDS011;67442;44.570;18.610;2024-01-30T01:45:06;242.65;;;76.78;;
78183;SDS011;67442;44.570;18.610;2024-01-30T01:47:34;258.33;;;79.07;;
78183;SDS011;67442;44.570;18.610;2024-01-30T01:50:02;221.35;;;66.07;;
78183;SDS011;67442;44.570;18.610;2024-01-30T01:52:29;193.80;;;62.45;;
78183;SDS011;67442;44.570;18.610;2024-01-30T01:55:01;188.05;;;57.80;;
78183;SDS011;67442;44.570;18.610;2024-01-30T01:57:29;183.40;;;57.20;;
78183;SDS011;67442;44.570;18.610;2024-01-30T02:00:01;181.95;;;58.60;;
78183;SDS011;67442;44.570;18.610;2024-01-30T02:02:30;193.10;;;59.53;;
78183;SDS011;67442;44.570;18.610;2024-01-30T02:04:58;199.45;;;63.33;;
78183;SDS011;67442;44.570;18.610;2024-01-30T02:07:29;203.65;;;67.38;;
78183;SDS011;67442;44.570;18.610;2024-01-30T02:09:57;193.63;;;65.75;;
78183;SDS011;67442;44.570;18.610;2024-01-30T02:12:24;188.82;;;62.63;;
78183;SDS011;67442;44.570;18.610;2024-01-30T02:14:52;208.77;;;67.93;;
78183;SDS011;67442;44.570;18.610;2024-01-30T02:17:20;216.50;;;70.93;;
78183;SDS011;67442;44.570;18.610;2024-01-30T02:19:49;144.48;;;48.42;;
78183;SDS011;67442;44.570;18.610;2024-01-30T02:22:16;147.85;;;49.08;;
78183;SDS011;67442;44.570;18.610;2024-01-30T02:24:43;142.15;;;46.97;;
78183;SDS011;67442;44.570;18.610;2024-01-30T02:27:11;140.02;;;44.75;;
78183;SDS011;67442;44.570;18.610;2024-01-30T02:29:39;155.80;;;49.60;;
78183;SDS011;67442;44.570;18.610;2024-01-30T02:32:06;155.07;;;50.53;;
78183;SDS011;67442;44.570;18.610;2024-01-30T02:34:33;126.43;;;42.72;;
78183;SDS011;67442;44.570;18.610;2024-01-30T02:37:01;153.68;;;48.15;;
78183;SDS011;67442;44.570;18.610;2024-01-30T02:39:28;123.43;;;43.92;;
78183;SDS011;67442;44.570;18.610;2024-01-30T02:41:55;126.72;;;40.88;;
78183;SDS011;67442;44.570;18.610;2024-01-30T02:44:23;108.13;;;35.58;;
78183;SDS011;67442;44.570;18.610;2024-01-30T02:46:51;169.63;;;51.45;;
78183;SDS011;67442;44.570;18.610;2024-01-30T02:49:23;145.65;;;48.05;;
78183;SDS011;67442;44.570;18.610;2024-01-30T02:51:50;130.80;;;40.72;;
78183;SDS011;67442;44.570;18.610;2024-01-30T02:54:17;114.43;;;41.38;;
78183;SDS011;67442;44.570;18.610;2024-01-30T02:56:48;116.75;;;36.25;;
78183;SDS011;67442;44.570;18.610;2024-01-30T02:59:20;106.70;;;34.13;;
78183;SDS011;67442;44.570;18.610;2024-01-30T03:01:47;82.55;;;31.05;;
78183;SDS011;67442;44.570;18.610;2024-01-30T03:04:15;111.35;;;38.20;;
78183;SDS011;67442;44.570;18.610;2024-01-30T03:06:46;128.60;;;39.95;;
78183;SDS011;67442;44.570;18.610;2024-01-30T03:09:15;114.95;;;38.58;;
78183;SDS011;67442;44.570;18.610;2024-01-30T03:11:45;117.38;;;38.08;;
78183;SDS011;67442;44.570;18.610;2024-01-30T03:14:12;97.75;;;33.40;;
78183;SDS011;67442;44.570;18.610;2024-01-30T03:16:44;101.97;;;34.80;;
78183;SDS011;67442;44.570;18.610;2024-01-30T03:19:12;100.82;;;35.47;;
78183;SDS011;67442;44.570;18.610;2024-01-30T03:21:43;129.02;;;42.58;;
78183;SDS011;67442;44.570;18.610;2024-01-30T03:24:14;100.43;;;35.78;;
78183;SDS011;67442;44.570;18.610;2024-01-30T03:26:43;98.05;;;33.20;;
78183;SDS011;67442;44.570;18.610;2024-01-30T03:29:10;90.32;;;31.73;;
78183;SDS011;67442;44.570;18.610;2024-01-30T03:31:37;96.13;;;31.05;;
78183;SDS011;67442;44.570;18.610;2024-01-30T03:34:05;77.57;;;27.52;;
78183;SDS011;67442;44.570;18.610;2024-01-30T03:36:33;89.18;;;29.65;;
78183;SDS011;67442;44.570;18.610;2024-01-30T03:39:04;95.03;;;32.33;;
78183;SDS011;67442;44.570;18.610;2024-01-30T03:41:32;104.47;;;36.53;;
78183;SDS011;67442;44.570;18.610;2024-01-30T03:44:02;128.75;;;41.60;;
78183;SDS011;67442;44.570;18.610;2024-01-30T03:46:30;120.88;;;41.90;;
78183;SDS011;67442;44.570;18.610;2024-01-30T03:48:57;136.88;;;47.03;;
78183;SDS011;67442;44.570;18.610;2024-01-30T03:51:25;147.57;;;50.05;;
78183;SDS011;67442;44.570;18.610;2024-01-30T03:53:52;154.13;;;51.60;;
78183;SDS011;67442;44.570;18.610;2024-01-30T03:56:20;148.27;;;49.95;;
78183;SDS011;67442;44.570;18.610;2024-01-30T03:58:48;195.55;;;66.57;;
78183;SDS011;67442;44.570;18.610;2024-01-30T04:01:19;218.20;;;68.30;;
78183;SDS011;67442;44.570;18.610;2024-01-30T04:03:46;176.93;;;59.75;;
78183;SDS011;67442;44.570;18.610;2024-01-30T04:06:18;186.25;;;58.65;;
78183;SDS011;67442;44.570;18.610;2024-01-30T04:08:45;147.60;;;47.55;;
78183;SDS011;67442;44.570;18.610;2024-01-30T04:11:18;150.57;;;47.08;;
78183;SDS011;67442;44.570;18.610;2024-01-30T04:13:45;139.73;;;44.78;;
78183;SDS011;67442;44.570;18.610;2024-01-30T04:16:20;119.35;;;36.78;;
78183;SDS011;67442;44.570;18.610;2024-01-30T04:18:50;119.80;;;38.10;;
78183;SDS011;67442;44.570;18.610;2024-01-30T04:21:20;136.65;;;42.53;;
78183;SDS011;67442;44.570;18.610;2024-01-30T04:23:46;130.90;;;41.83;;
78183;SDS011;67442;44.570;18.610;2024-01-30T04:26:14;132.40;;;42.90;;
78183;SDS011;67442;44.570;18.610;2024-01-30T04:28:42;113.45;;;39.50;;
78183;SDS011;67442;44.570;18.610;2024-01-30T04:31:14;144.23;;;46.78;;
78183;SDS011;67442;44.570;18.610;2024-01-30T04:33:42;125.90;;;38.70;;
78183;SDS011;67442;44.570;18.610;2024-01-30T04:36:13;102.18;;;34.03;;
78183;SDS011;67442;44.570;18.610;2024-01-30T04:38:41;106.95;;;34.90;;
78183;SDS011;67442;44.570;18.610;2024-01-30T04:41:09;141.52;;;44.20;;
78183;SDS011;67442;44.570;18.610;2024-01-30T04:43:40;163.10;;;49.13;;
78183;SDS011;67442;44.570;18.610;2024-01-30T04:46:11;178.43;;;53.80;;
78183;SDS011;67442;44.570;18.610;2024-01-30T04:48:43;182.65;;;54.83;;
78183;SDS011;67442;44.570;18.610;2024-01-30T04:51:10;148.77;;;48.15;;
78183;SDS011;67442;44.570;18.610;2024-01-30T04:53:38;185.20;;;55.95;;
78183;SDS011;67442;44.570;18.610;2024-01-30T04:56:09;157.88;;;49.30;;
78183;SDS011;67442;44.570;18.610;2024-01-30T04:58:36;136.80;;;40.42;;
78183;SDS011;67442;44.570;18.610;2024-01-30T05:01:03;122.03;;;38.60;;
78183;SDS011;67442;44.570;18.610;2024-01-30T05:03:35;119.32;;;40.10;;
78183;SDS011;67442;44.570;18.610;2024-01-30T05:06:02;96.68;;;31.08;;
78183;SDS011;67442;44.570;18.610;2024-01-30T05:08:30;99.70;;;33.15;;
78183;SDS011;67442;44.570;18.610;2024-01-30T05:11:00;80.00;;;28.95;;
78183;SDS011;67442;44.570;18.610;2024-01-30T05:13:32;79.78;;;26.58;;
78183;SDS011;67442;44.570;18.610;2024-01-30T05:16:01;75.53;;;26.67;;
78183;SDS011;67442;44.570;18.610;2024-01-30T05:18:29;82.22;;;26.30;;
78183;SDS011;67442;44.570;18.610;2024-01-30T05:20:57;88.43;;;28.42;;
78183;SDS011;67442;44.570;18.610;2024-01-30T05:23:25;120.60;;;36.92;;
78183;SDS011;67442;44.570;18.610;2024-01-30T05:25:56;110.28;;;35.53;;
78183;SDS011;67442;44.570;18.610;2024-01-30T05:28:31;133.30;;;42.97;;
78183;SDS011;67442;44.570;18.610;2024-01-30T05:31:02;133.48;;;46.15;;
78183;SDS011;67442;44.570;18.610;2024-01-30T05:33:30;136.82;;;43.95;;
78183;SDS011;67442;44.570;18.610;2024-01-30T05:35:58;143.93;;;44.38;;
78183;SDS011;67442;44.570;18.610;2024-01-30T05:38:25;149.27;;;44.33;;
78183;SDS011;67442;44.570;18.610;2024-01-30T05:40:53;139.90;;;44.92;;
78183;SDS011;67442;44.570;18.610;2024-01-30T05:43:21;160.73;;;47.40;;
78183;SDS011;67442;44.570;18.610;2024-01-30T05:45:51;153.40;;;48.55;;
78183;SDS011;67442;44.570;18.610;2024-01-30T05:48:18;153.02;;;45.53;;
78183;SDS011;67442;44.570;18.610;2024-01-30T05:50:46;117.22;;;40.17;;
78183;SDS011;67442;44.570;18.610;2024-01-30T05:53:14;129.35;;;42.88;;
78183;SDS011;67442;44.570;18.610;2024-01-30T05:55:45;130.20;;;39.22;;
78183;SDS011;67442;44.570;18.610;2024-01-30T05:58:12;140.30;;;38.78;;
78183;SDS011;67442;44.570;18.610;2024-01-30T06:00:44;156.20;;;47.00;;
78183;SDS011;67442;44.570;18.610;2024-01-30T06:03:12;183.20;;;56.35;;
78183;SDS011;67442;44.570;18.610;2024-01-30T06:05:39;154.80;;;50.40;;
78183;SDS011;67442;44.570;18.610;2024-01-30T06:08:07;159.30;;;48.22;;
78183;SDS011;67442;44.570;18.610;2024-01-30T06:10:38;125.55;;;40.10;;
78183;SDS011;67442;44.570;18.610;2024-01-30T06:13:06;124.00;;;38.22;;
78183;SDS011;67442;44.570;18.610;2024-01-30T06:15:33;175.32;;;48.25;;
78183;SDS011;67442;44.570;18.610;2024-01-30T06:18:01;154.73;;;52.33;;
78183;SDS011;67442;44.570;18.610;2024-01-30T06:20:29;194.63;;;58.45;;
78183;SDS011;67442;44.570;18.610;2024-01-30T06:23:00;181.63;;;55.10;;
78183;SDS011;67442;44.570;18.610;2024-01-30T06:25:27;1277.68;;;450.02;;
78183;SDS011;67442;44.570;18.610;2024-01-30T06:27:55;724.30;;;249.70;;
78183;SDS011;67442;44.570;18.610;2024-01-30T06:30:26;341.35;;;104.18;;
78183;SDS011;67442;44.570;18.610;2024-01-30T06:32:54;177.30;;;58.03;;
78183;SDS011;67442;44.570;18.610;2024-01-30T06:35:22;216.98;;;63.35;;
78183;SDS011;67442;44.570;18.610;2024-01-30T06:37:49;202.38;;;60.97;;
78183;SDS011;67442;44.570;18.610;2024-01-30T06:40:21;199.13;;;56.60;;
78183;SDS011;67442;44.570;18.610;2024-01-30T06:42:52;217.98;;;64.03;;
78183;SDS011;67442;44.570;18.610;2024-01-30T06:45:20;262.98;;;77.85;;
78183;SDS011;67442;44.570;18.610;2024-01-30T06:47:51;392.25;;;115.65;;
78183;SDS011;67442;44.570;18.610;2024-01-30T06:50:19;329.83;;;98.00;;
78183;SDS011;67442;44.570;18.610;2024-01-30T06:52:46;439.35;;;131.90;;
78183;SDS011;67442;44.570;18.610;2024-01-30T06:55:18;453.00;;;137.00;;
78183;SDS011;67442;44.570;18.610;2024-01-30T06:57:48;421.92;;;126.13;;
78183;SDS011;67442;44.570;18.610;2024-01-30T07:00:16;479.48;;;149.43;;
78183;SDS011;67442;44.570;18.610;2024-01-30T07:02:49;471.52;;;143.70;;
78183;SDS011;67442;44.570;18.610;2024-01-30T07:05:21;558.55;;;179.73;;
78183;SDS011;67442;44.570;18.610;2024-01-30T07:07:48;309.48;;;94.85;;
78183;SDS011;67442;44.570;18.610;2024-01-30T07:10:19;868.22;;;249.60;;
78183;SDS011;67442;44.570;18.610;2024-01-30T07:12:46;684.55;;;199.68;;
78183;SDS011;67442;44.570;18.610;2024-01-30T07:15:18;345.10;;;118.07;;
78183;SDS011;67442;44.570;18.610;2024-01-30T07:17:46;409.88;;;147.15;;
78183;SDS011;67442;44.570;18.610;2024-01-30T07:20:17;450.25;;;155.35;;
78183;SDS011;67442;44.570;18.610;2024-01-30T07:22:46;445.83;;;152.18;;
78183;SDS011;67442;44.570;18.610;2024-01-30T07:25:13;391.70;;;142.70;;
78183;SDS011;67442;44.570;18.610;2024-01-30T07:27:41;377.83;;;135.10;;
78183;SDS011;67442;44.570;18.610;2024-01-30T07:30:08;369.90;;;135.02;;
78183;SDS011;67442;44.570;18.610;2024-01-30T07:32:36;321.55;;;113.70;;
78183;SDS011;67442;44.570;18.610;2024-01-30T07:35:07;260.63;;;95.43;;
78183;SDS011;67442;44.570;18.610;2024-01-30T07:37:35;250.43;;;85.47;;
78183;SDS011;67442;44.570;18.610;2024-01-30T07:40:06;311.05;;;110.07;;
78183;SDS011;67442;44.570;18.610;2024-01-30T07:42:34;264.92;;;88.65;;
78183;SDS011;67442;44.570;18.610;2024-01-30T07:45:02;352.30;;;115.30;;
78183;SDS011;67442;44.570;18.610;2024-01-30T07:47:29;224.18;;;78.72;;
78183;SDS011;67442;44.570;18.610;2024-01-30T07:49:58;175.10;;;61.55;;
78183;SDS011;67442;44.570;18.610;2024-01-30T07:52:26;277.95;;;96.20;;
78183;SDS011;67442;44.570;18.610;2024-01-30T07:54:54;326.08;;;123.88;;
78183;SDS011;67442;44.570;18.610;2024-01-30T07:57:22;235.80;;;88.32;;
78183;SDS011;67442;44.570;18.610;2024-01-30T07:59:50;111.32;;;44.15;;
78183;SDS011;67442;44.570;18.610;2024-01-30T08:02:18;172.82;;;64.85;;
78183;SDS011;67442;44.570;18.610;2024-01-30T08:04:48;158.73;;;59.50;;
78183;SDS011;67442;44.570;18.610;2024-01-30T08:07:16;161.80;;;58.80;;
78183;SDS011;67442;44.570;18.610;2024-01-30T08:09:43;176.65;;;60.75;;
78183;SDS011;67442;44.570;18.610;2024-01-30T08:12:10;146.63;;;50.97;;
78183;SDS011;67442;44.570;18.610;2024-01-30T08:14:38;141.60;;;53.63;;
78183;SDS011;67442;44.570;18.610;2024-01-30T08:17:06;132.70;;;49.63;;
78183;SDS011;67442;44.570;18.610;2024-01-30T08:19:36;161.82;;;66.15;;
78183;SDS011;67442;44.570;18.610;2024-01-30T08:22:07;146.82;;;55.90;;
78183;SDS011;67442;44.570;18.610;2024-01-30T08:24:38;149.27;;;61.30;;
78183;SDS011;67442;44.570;18.610;2024-01-30T08:27:06;208.88;;;70.93;;
78183;SDS011;67442;44.570;18.610;2024-01-30T08:29:53;171.63;;;59.67;;
78183;SDS011;67442;44.570;18.610;2024-01-30T08:32:21;126.35;;;48.33;;
78183;SDS011;67442;44.570;18.610;2024-01-30T08:34:52;107.78;;;42.78;;
78183;SDS011;67442;44.570;18.610;2024-01-30T08:37:19;111.07;;;41.50;;
78183;SDS011;67442;44.570;18.610;2024-01-30T08:39:50;113.53;;;43.75;;
78183;SDS011;67442;44.570;18.610;2024-01-30T08:42:22;105.72;;;42.60;;
78183;SDS011;67442;44.570;18.610;2024-01-30T08:44:51;104.80;;;40.55;;
78183;SDS011;67442;44.570;18.610;2024-01-30T08:47:22;106.40;;;40.15;;
78183;SDS011;67442;44.570;18.610;2024-01-30T08:49:51;102.53;;;41.53;;
78183;SDS011;67442;44.570;18.610;2024-01-30T08:52:18;177.85;;;90.93;;
78183;SDS011;67442;44.570;18.610;2024-01-30T08:54:48;168.75;;;68.93;;
78183;SDS011;67442;44.570;18.610;2024-01-30T08:57:16;95.10;;;37.13;;
78183;SDS011;67442;44.570;18.610;2024-01-30T08:59:43;84.38;;;35.28;;
78183;SDS011;67442;44.570;18.610;2024-01-30T09:02:14;121.47;;;42.30;;
78183;SDS011;67442;44.570;18.610;2024-01-30T09:04:46;78.38;;;33.35;;
78183;SDS011;67442;44.570;18.610;2024-01-30T09:07:23;88.50;;;35.10;;
78183;SDS011;67442;44.570;18.610;2024-01-30T09:09:57;88.30;;;34.08;;
78183;SDS011;67442;44.570;18.610;2024-01-30T09:12:25;92.32;;;36.72;;
78183;SDS011;67442;44.570;18.610;2024-01-30T09:14:52;83.53;;;34.33;;
78183;SDS011;67442;44.570;18.610;2024-01-30T09:17:27;103.88;;;42.95;;
78183;SDS011;67442;44.570;18.610;2024-01-30T09:19:55;123.78;;;51.35;;
78183;SDS011;67442;44.570;18.610;2024-01-30T09:22:27;119.25;;;43.47;;
78183;SDS011;67442;44.570;18.610;2024-01-30T09:24:59;85.25;;;38.08;;
78183;SDS011;67442;44.570;18.610;2024-01-30T09:27:30;60.28;;;25.88;;
78183;SDS011;67442;44.570;18.610;2024-01-30T09:29:57;79.18;;;27.50;;
78183;SDS011;67442;44.570;18.610;2024-01-30T09:32:27;61.50;;;24.52;;
78183;SDS011;67442;44.570;18.610;2024-01-30T09:34:58;59.22;;;23.98;;
78183;SDS011;67442;44.570;18.610;2024-01-30T09:37:29;66.57;;;25.95;;
78183;SDS011;67442;44.570;18.610;2024-01-30T09:40:00;58.92;;;25.90;;
78183;SDS011;67442;44.570;18.610;2024-01-30T09:42:35;88.05;;;33.78;;
78183;SDS011;67442;44.570;18.610;2024-01-30T09:45:03;77.22;;;29.05;;
78183;SDS011;67442;44.570;18.610;2024-01-30T09:47:48;89.18;;;34.55;;
78183;SDS011;67442;44.570;18.610;2024-01-30T09:50:19;93.68;;;40.25;;
78183;SDS011;67442;44.570;18.610;2024-01-30T09:52:50;88.55;;;41.20;;
78183;SDS011;67442;44.570;18.610;2024-01-30T09:55:19;117.80;;;51.63;;
78183;SDS011;67442;44.570;18.610;2024-01-30T09:57:47;77.38;;;33.10;;
78183;SDS011;67442;44.570;18.610;2024-01-30T10:00:15;97.68;;;41.58;;
78183;SDS011;67442;44.570;18.610;2024-01-30T10:02:48;94.95;;;37.40;;
78183;SDS011;67442;44.570;18.610;2024-01-30T10:05:21;94.65;;;39.45;;
78183;SDS011;67442;44.570;18.610;2024-01-30T10:07:54;103.07;;;40.83;;
78183;SDS011;67442;44.570;18.610;2024-01-30T10:10:22;104.70;;;43.75;;
78183;SDS011;67442;44.570;18.610;2024-01-30T10:12:53;117.78;;;47.70;;
78183;SDS011;67442;44.570;18.610;2024-01-30T10:15:20;110.15;;;40.90;;
78183;SDS011;67442;44.570;18.610;2024-01-30T10:17:48;108.32;;;43.20;;
78183;SDS011;67442;44.570;18.610;2024-01-30T10:20:15;122.22;;;49.28;;
78183;SDS011;67442;44.570;18.610;2024-01-30T10:22:45;114.32;;;46.67;;
78183;SDS011;67442;44.570;18.610;2024-01-30T10:25:15;105.18;;;44.38;;
78183;SDS011;67442;44.570;18.610;2024-01-30T10:27:52;119.15;;;46.08;;
78183;SDS011;67442;44.570;18.610;2024-01-30T10:30:39;126.18;;;51.85;;
78183;SDS011;67442;44.570;18.610;2024-01-30T10:33:10;108.30;;;45.42;;
78183;SDS011;67442;44.570;18.610;2024-01-30T10:35:42;111.85;;;46.55;;
78183;SDS011;67442;44.570;18.610;2024-01-30T10:38:10;110.20;;;41.30;;
78183;SDS011;67442;44.570;18.610;2024-01-30T10:40:41;102.07;;;39.60;;
78183;SDS011;67442;44.570;18.610;2024-01-30T10:43:11;126.38;;;48.80;;
78183;SDS011;67442;44.570;18.610;2024-01-30T10:45:45;91.75;;;37.40;;
78183;SDS011;67442;44.570;18.610;2024-01-30T10:48:20;85.30;;;36.60;;
78183;SDS011;67442;44.570;18.610;2024-01-30T10:51:01;82.65;;;33.05;;
78183;SDS011;67442;44.570;18.610;2024-01-30T10:53:30;121.15;;;42.67;;
78183;SDS011;67442;44.570;18.610;2024-01-30T10:56:03;115.70;;;39.13;;
78183;SDS011;67442;44.570;18.610;2024-01-30T10:58:32;122.25;;;41.03;;
78183;SDS011;67442;44.570;18.610;2024-01-30T11:01:04;92.93;;;36.63;;
78183;SDS011;67442;44.570;18.610;2024-01-30T11:03:35;87.20;;;33.15;;
78183;SDS011;67442;44.570;18.610;2024-01-30T11:06:03;85.18;;;30.38;;
78183;SDS011;67442;44.570;18.610;2024-01-30T11:08:34;75.65;;;29.02;;
78183;SDS011;67442;44.570;18.610;2024-01-30T11:11:08;113.45;;;37.35;;
78183;SDS011;67442;44.570;18.610;2024-01-30T11:13:39;101.78;;;37.17;;
78183;SDS011;67442;44.570;18.610;2024-01-30T11:16:11;91.95;;;33.30;;
78183;SDS011;67442;44.570;18.610;2024-01-30T11:18:38;80.28;;;28.55;;
78183;SDS011;67442;44.570;18.610;2024-01-30T11:21:06;74.40;;;30.40;;
78183;SDS011;67442;44.570;18.610;2024-01-30T11:23:38;75.97;;;31.88;;
78183;SDS011;67442;44.570;18.610;2024-01-30T11:26:11;69.50;;;27.80;;
78183;SDS011;67442;44.570;18.610;2024-01-30T11:28:38;71.30;;;28.33;;
78183;SDS011;67442;44.570;18.610;2024-01-30T11:31:07;72.13;;;29.90;;
78183;SDS011;67442;44.570;18.610;2024-01-30T11:33:40;65.13;;;25.42;;
78183;SDS011;67442;44.570;18.610;2024-01-30T11:36:08;56.92;;;22.45;;
78183;SDS011;67442;44.570;18.610;2024-01-30T11:38:38;54.80;;;22.73;;
78183;SDS011;67442;44.570;18.610;2024-01-30T11:41:09;73.13;;;27.50;;
78183;SDS011;67442;44.570;18.610;2024-01-30T11:43:41;79.93;;;30.23;;
78183;SDS011;67442;44.570;18.610;2024-01-30T11:46:08;72.25;;;28.55;;
78183;SDS011;67442;44.570;18.610;2024-01-30T11:48:36;54.95;;;23.83;;
78183;SDS011;67442;44.570;18.610;2024-01-30T11:51:09;51.10;;;20.90;;
78183;SDS011;67442;44.570;18.610;2024-01-30T11:53:40;138.80;;;52.17;;
78183;SDS011;67442;44.570;18.610;2024-01-30T11:56:12;40.20;;;16.38;;
78183;SDS011;67442;44.570;18.610;2024-01-30T11:58:43;114.68;;;42.33;;
78183;SDS011;67442;44.570;18.610;2024-01-30T12:01:11;103.13;;;35.70;;
78183;SDS011;67442;44.570;18.610;2024-01-30T12:03:38;55.38;;;20.73;;
78183;SDS011;67442;44.570;18.610;2024-01-30T12:06:06;40.63;;;14.65;;
78183;SDS011;67442;44.570;18.610;2024-01-30T12:08:34;37.88;;;13.52;;
78183;SDS011;67442;44.570;18.610;2024-01-30T12:11:01;26.10;;;11.18;;
78183;SDS011;67442;44.570;18.610;2024-01-30T12:13:30;29.92;;;12.27;;
78183;SDS011;67442;44.570;18.610;2024-01-30T12:16:02;31.38;;;12.70;;
78183;SDS011;67442;44.570;18.610;2024-01-30T12:18:29;30.85;;;13.55;;
78183;SDS011;67442;44.570;18.610;2024-01-30T12:21:00;26.52;;;11.13;;
78183;SDS011;67442;44.570;18.610;2024-01-30T12:23:28;23.27;;;9.27;;
78183;SDS011;67442;44.570;18.610;2024-01-30T12:25:54;27.90;;;10.00;;
78183;SDS011;67442;44.570;18.610;2024-01-30T12:28:23;34.33;;;14.25;;
78183;SDS011;67442;44.570;18.610;2024-01-30T12:30:57;23.75;;;10.30;;
78183;SDS011;67442;44.570;18.610;2024-01-30T12:33:29;30.70;;;10.20;;
78183;SDS011;67442;44.570;18.610;2024-01-30T12:35:56;20.55;;;9.60;;
78183;SDS011;67442;44.570;18.610;2024-01-30T12:38:31;28.55;;;12.15;;
78183;SDS011;67442;44.570;18.610;2024-01-30T12:40:58;28.42;;;10.63;;
78183;SDS011;67442;44.570;18.610;2024-01-30T12:43:26;21.35;;;9.52;;
78183;SDS011;67442;44.570;18.610;2024-01-30T12:45:56;26.20;;;9.75;;
78183;SDS011;67442;44.570;18.610;2024-01-30T12:48:25;17.52;;;7.65;;
78183;SDS011;67442;44.570;18.610;2024-01-30T12:50:56;89.43;;;37.42;;
78183;SDS011;67442;44.570;18.610;2024-01-30T12:53:23;20.55;;;7.72;;
78183;SDS011;67442;44.570;18.610;2024-01-30T12:55:51;44.03;;;18.88;;
78183;SDS011;67442;44.570;18.610;2024-01-30T12:58:22;19.23;;;8.13;;
78183;SDS011;67442;44.570;18.610;2024-01-30T13:00:53;39.55;;;14.88;;
78183;SDS011;67442;44.570;18.610;2024-01-30T13:03:21;24.08;;;10.70;;
78183;SDS011;67442;44.570;18.610;2024-01-30T13:05:50;30.92;;;11.70;;
78183;SDS011;67442;44.570;18.610;2024-01-30T13:08:21;24.20;;;10.27;;
78183;SDS011;67442;44.570;18.610;2024-01-30T13:10:53;20.98;;;9.68;;
78183;SDS011;67442;44.570;18.610;2024-01-30T13:13:20;23.77;;;9.70;;
78183;SDS011;67442;44.570;18.610;2024-01-30T13:15:48;21.80;;;8.43;;
78183;SDS011;67442;44.570;18.610;2024-01-30T13:18:15;25.02;;;10.20;;
78183;SDS011;67442;44.570;18.610;2024-01-30T13:20:42;18.05;;;7.70;;
78183;SDS011;67442;44.570;18.610;2024-01-30T13:23:10;18.65;;;7.68;;
78183;SDS011;67442;44.570;18.610;2024-01-30T13:25:37;26.52;;;12.10;;
78183;SDS011;67442;44.570;18.610;2024-01-30T13:28:09;22.55;;;10.13;;
78183;SDS011;67442;44.570;18.610;2024-01-30T13:30:36;17.00;;;7.63;;
78183;SDS011;67442;44.570;18.610;2024-01-30T13:33:04;18.55;;;9.15;;
78183;SDS011;67442;44.570;18.610;2024-01-30T13:35:32;61.35;;;18.75;;
78183;SDS011;67442;44.570;18.610;2024-01-30T13:38:03;16.85;;;8.00;;
78183;SDS011;67442;44.570;18.610;2024-01-30T13:40:31;36.25;;;14.15;;
78183;SDS011;67442;44.570;18.610;2024-01-30T13:42:59;29.75;;;14.45;;
78183;SDS011;67442;44.570;18.610;2024-01-30T13:45:29;35.30;;;15.38;;
78183;SDS011;67442;44.570;18.610;2024-01-30T13:47:57;19.67;;;8.13;;
78183;SDS011;67442;44.570;18.610;2024-01-30T13:50:29;17.80;;;7.97;;
78183;SDS011;67442;44.570;18.610;2024-01-30T13:52:59;17.33;;;7.63;;
78183;SDS011;67442;44.570;18.610;2024-01-30T13:55:27;18.27;;;7.35;;
78183;SDS011;67442;44.570;18.610;2024-01-30T13:57:54;19.45;;;7.75;;
78183;SDS011;67442;44.570;18.610;2024-01-30T14:00:25;23.88;;;8.02;;
78183;SDS011;67442;44.570;18.610;2024-01-30T14:02:57;17.80;;;8.98;;
78183;SDS011;67442;44.570;18.610;2024-01-30T14:05:26;20.23;;;8.98;;
78183;SDS011;67442;44.570;18.610;2024-01-30T14:07:56;25.10;;;8.40;;
78183;SDS011;67442;44.570;18.610;2024-01-30T14:10:25;36.40;;;10.73;;
78183;SDS011;67442;44.570;18.610;2024-01-30T14:12:52;27.40;;;10.80;;